Time;durP1;ratioP1;P1;durP2;ratioP2;P2;SDS_P1;SDS_P2;PMS_P1;PMS_P2;Temp;Humidity;BMP_temperature;BMP_pressure;BME280_temperature;BME280_humidity;BME280_pressure;Samples;Min_cycle;Max_cycle;Signal;HPM_P1;HPM_P2
2021/08/16 00:02:12;;;;;;;3.83;3.20;;;19.10;99.90;;;;;;4926587;29;20457;-79
2021/08/16 00:04:41;;;;;;;6.20;4.70;;;19.20;99.90;;;;;;4926877;29;20915;-80
2021/08/16 00:07:09;;;;;;;5.93;3.63;;;19.20;99.90;;;;;;4927971;29;20438;-79
2021/08/16 00:09:37;;;;;;;4.80;3.47;;;19.20;99.90;;;;;;4927168;29;20411;-79
2021/08/16 00:12:06;;;;;;;4.53;3.70;;;19.10;99.90;;;;;;4931499;29;20508;-79
2021/08/16 00:14:34;;;;;;;3.80;3.40;;;19.10;99.90;;;;;;4932916;29;20781;-79
2021/08/16 00:17:03;;;;;;;6.27;3.77;;;19.10;99.90;;;;;;4936303;29;20433;-77
2021/08/16 00:19:32;;;;;;;5.70;4.40;;;19.10;99.90;;;;;;4934652;29;20424;-78
2021/08/16 00:22:00;;;;;;;12.37;6.30;;;19.10;99.90;;;;;;4918878;29;20507;-79
2021/08/16 00:24:29;;;;;;;5.10;3.60;;;19.20;99.90;;;;;;4920110;29;20400;-79
2021/08/16 00:26:57;;;;;;;4.70;3.70;;;19.20;99.90;;;;;;4932284;29;20412;-79
2021/08/16 00:29:25;;;;;;;4.57;3.40;;;19.20;99.90;;;;;;4928312;29;20448;-78
2021/08/16 00:31:54;;;;;;;4.20;3.37;;;19.10;99.90;;;;;;4938617;29;20487;-78
2021/08/16 00:34:22;;;;;;;4.27;3.47;;;19.00;99.90;;;;;;4929995;29;20404;-79
2021/08/16 00:36:52;;;;;;;6.83;4.10;;;19.00;99.90;;;;;;4929889;29;20807;-78
2021/08/16 00:39:20;;;;;;;4.97;3.20;;;19.10;99.90;;;;;;4924532;29;20434;-80
2021/08/16 00:41:49;;;;;;;5.50;3.27;;;19.00;99.90;;;;;;4925066;29;20453;-79
2021/08/16 00:44:17;;;;;;;4.23;3.43;;;19.00;99.90;;;;;;4926000;29;20528;-79
2021/08/16 00:46:46;;;;;;;6.43;3.70;;;19.10;99.90;;;;;;4926222;29;20828;-78
2021/08/16 00:49:15;;;;;;;4.43;3.27;;;19.10;99.90;;;;;;4930920;29;20452;-78
2021/08/16 00:51:43;;;;;;;3.53;2.80;;;19.10;99.90;;;;;;4934474;29;20532;-78
2021/08/16 00:54:13;;;;;;;3.73;3.27;;;19.00;99.90;;;;;;4917544;29;20448;-80
2021/08/16 00:56:41;;;;;;;5.40;3.50;;;18.90;99.90;;;;;;4931971;29;20400;-80
2021/08/16 00:59:11;;;;;;;9.73;4.07;;;18.80;99.90;;;;;;4926140;29;20500;-80
2021/08/16 01:01:39;;;;;;;4.77;3.20;;;18.80;99.90;;;;;;4925284;29;20446;-80
2021/08/16 01:04:08;;;;;;;3.53;2.73;;;18.80;99.90;;;;;;4925641;29;20415;-79
2021/08/16 01:06:36;;;;;;;4.80;4.30;;;18.70;99.90;;;;;;4924660;29;20451;-79
2021/08/16 01:09:05;;;;;;;4.53;3.17;;;18.80;99.90;;;;;;4916302;29;20484;-79
2021/08/16 01:11:34;;;;;;;3.93;3.13;;;18.70;99.90;;;;;;4936130;29;20439;-78
2021/08/16 01:14:03;;;;;;;7.13;4.50;;;18.60;99.90;;;;;;4918780;29;20895;-80
2021/08/16 01:16:31;;;;;;;5.33;3.23;;;18.60;99.90;;;;;;4927711;29;20438;-79
2021/08/16 01:18:59;;;;;;;4.10;2.87;;;18.70;99.90;;;;;;4925671;29;20404;-80
2021/08/16 01:21:27;;;;;;;5.57;3.67;;;18.80;99.90;;;;;;4927952;29;20828;-80
2021/08/16 01:23:55;;;;;;;4.13;3.57;;;18.90;99.90;;;;;;4937861;29;20415;-79
2021/08/16 01:26:24;;;;;;;3.57;3.27;;;18.90;99.90;;;;;;4936013;29;20429;-79
2021/08/16 01:28:53;;;;;;;4.43;3.00;;;18.90;99.90;;;;;;4932551;29;20444;-79
2021/08/16 01:31:21;;;;;;;3.77;3.43;;;18.80;99.90;;;;;;4931615;29;20441;-78
2021/08/16 01:33:49;;;;;;;3.60;3.03;;;18.80;99.90;;;;;;4925248;29;20469;-79
2021/08/16 01:36:17;;;;;;;4.20;3.73;;;18.80;99.90;;;;;;4923937;29;20453;-79
2021/08/16 01:38:45;;;;;;;5.57;3.43;;;18.80;99.90;;;;;;4932597;29;20425;-79
2021/08/16 01:41:13;;;;;;;7.27;4.40;;;18.80;99.90;;;;;;4933770;29;20424;-79
2021/08/16 01:43:41;;;;;;;5.63;3.70;;;18.70;99.90;;;;;;4933562;29;20441;-80
2021/08/16 01:46:11;;;;;;;4.87;3.40;;;18.60;99.90;;;;;;4923728;29;20456;-79
2021/08/16 01:48:39;;;;;;;5.80;3.30;;;18.50;99.90;;;;;;4922182;29;20472;-79
2021/08/16 01:51:07;;;;;;;4.23;3.10;;;18.50;99.90;;;;;;4921399;29;20460;-79
2021/08/16 01:53:35;;;;;;;8.00;4.53;;;18.40;99.90;;;;;;4921876;29;20408;-79
2021/08/16 01:56:04;;;;;;;3.70;3.40;;;18.40;99.90;;;;;;4921793;29;20423;-79
2021/08/16 01:58:32;;;;;;;5.57;3.20;;;18.40;99.90;;;;;;4901697;29;20541;-78
2021/08/16 02:01:00;;;;;;;4.37;3.93;;;18.40;99.90;;;;;;4919136;29;20947;-78
2021/08/16 02:03:30;;;;;;;6.63;3.80;;;18.40;99.90;;;;;;4921191;29;20503;-79
2021/08/16 02:05:58;;;;;;;3.57;3.27;;;18.40;99.90;;;;;;4921727;29;20396;-79
2021/08/16 02:08:29;;;;;;;11.93;4.07;;;18.40;99.90;;;;;;4922635;29;20458;-78
2021/08/16 02:10:57;;;;;;;5.33;3.87;;;18.40;99.90;;;;;;4920974;29;20461;-79
2021/08/16 02:13:25;;;;;;;4.90;3.57;;;18.40;99.90;;;;;;4919269;29;20838;-78
2021/08/16 02:15:53;;;;;;;6.50;3.63;;;18.50;99.90;;;;;;4921355;29;20412;-79
2021/08/16 02:18:21;;;;;;;5.07;3.43;;;18.50;99.90;;;;;;4907027;29;20416;-78
2021/08/16 02:20:51;;;;;;;5.23;2.83;;;18.50;99.90;;;;;;4928788;29;20446;-78
2021/08/16 02:23:19;;;;;;;6.53;4.10;;;18.60;99.90;;;;;;4927922;29;20495;-79
2021/08/16 02:25:47;;;;;;;4.73;3.67;;;18.50;99.90;;;;;;4931206;29;20426;-79
2021/08/16 02:28:16;;;;;;;6.43;3.90;;;18.50;99.90;;;;;;4930478;29;20445;-77
2021/08/16 02:30:45;;;;;;;3.30;3.00;;;18.50;99.90;;;;;;4924178;29;20481;-78
2021/08/16 02:33:14;;;;;;;4.20;3.80;;;18.50;99.90;;;;;;4907965;29;20441;-78
2021/08/16 02:35:43;;;;;;;4.40;3.23;;;18.50;99.90;;;;;;4927587;29;20444;-79
2021/08/16 02:38:14;;;;;;;5.13;3.50;;;18.50;99.90;;;;;;4910918;29;20412;-79
2021/08/16 02:40:42;;;;;;;4.63;3.60;;;18.50;99.90;;;;;;4924105;29;20505;-79
2021/08/16 02:43:10;;;;;;;4.47;3.50;;;18.50;99.90;;;;;;4918727;29;20494;-80
2021/08/16 02:45:38;;;;;;;5.27;3.47;;;18.50;99.90;;;;;;4920739;29;20412;-80
2021/08/16 02:48:06;;;;;;;5.63;3.20;;;18.40;99.90;;;;;;4922240;29;20445;-78
2021/08/16 02:50:34;;;;;;;5.03;4.00;;;18.40;99.90;;;;;;4921435;29;20460;-79
2021/08/16 02:53:02;;;;;;;5.33;3.47;;;18.40;99.90;;;;;;4919675;29;20524;-79
2021/08/16 02:55:32;;;;;;;4.03;3.27;;;18.40;99.90;;;;;;4902101;29;20456;-79
2021/08/16 02:58:00;;;;;;;4.27;3.60;;;18.40;99.90;;;;;;4919224;29;20436;-79
2021/08/16 03:00:28;;;;;;;4.43;3.40;;;18.50;99.90;;;;;;4919439;29;20423;-78
2021/08/16 03:02:57;;;;;;;5.37;3.70;;;18.40;99.90;;;;;;4917840;29;20430;-78
2021/08/16 03:05:25;;;;;;;4.40;3.23;;;18.40;99.90;;;;;;4917804;29;20460;-78
2021/08/16 03:07:53;;;;;;;5.10;4.00;;;18.40;99.90;;;;;;4917627;29;20934;-78
2021/08/16 03:10:36;;;;;;;6.83;3.80;;;18.50;99.90;;;;;;4930316;23;20633;-71
2021/08/16 03:13:04;;;;;;;3.40;3.10;;;18.50;99.90;;;;;;4887846;29;20459;-70
2021/08/16 03:15:32;;;;;;;4.27;3.30;;;18.40;99.90;;;;;;4897103;29;20774;-70
2021/08/16 03:18:01;;;;;;;3.73;3.37;;;18.30;99.90;;;;;;4897230;29;20773;-71
2021/08/16 03:20:30;;;;;;;4.57;3.97;;;18.30;99.90;;;;;;4895883;29;20941;-70
2021/08/16 03:22:58;;;;;;;5.80;3.53;;;18.30;99.90;;;;;;4897156;29;20454;-70
2021/08/16 03:25:27;;;;;;;5.13;3.47;;;18.20;99.90;;;;;;4899574;29;20437;-71
2021/08/16 03:27:56;;;;;;;4.17;3.40;;;18.20;99.90;;;;;;4899439;29;20487;-72
2021/08/16 03:30:25;;;;;;;5.50;4.27;;;18.30;99.90;;;;;;4898686;29;20899;-70
2021/08/16 03:32:53;;;;;;;5.10;3.40;;;18.20;99.90;;;;;;4900283;29;20462;-70
2021/08/16 03:35:21;;;;;;;5.07;2.97;;;18.20;99.90;;;;;;4913212;29;20405;-70
2021/08/16 03:37:49;;;;;;;6.70;3.60;;;18.20;99.90;;;;;;4915857;29;20639;-70
2021/08/16 03:40:18;;;;;;;6.80;3.40;;;18.10;99.90;;;;;;4915577;29;20473;-70
2021/08/16 03:42:46;;;;;;;3.87;2.80;;;18.10;99.90;;;;;;4915423;29;20424;-70
2021/08/16 03:45:19;;;;;;;3.73;2.87;;;18.20;99.90;;;;;;4915544;29;20430;-71
2021/08/16 03:47:49;;;;;;;8.50;3.80;;;18.20;99.90;;;;;;4903349;29;20494;-71
2021/08/16 03:50:18;;;;;;;4.27;3.40;;;18.30;99.90;;;;;;4899539;29;20466;-70
2021/08/16 03:52:47;;;;;;;6.73;3.57;;;18.50;99.90;;;;;;4897963;29;20451;-70
2021/08/16 03:55:15;;;;;;;5.00;3.17;;;18.60;99.90;;;;;;4898775;29;20750;-71
2021/08/16 03:57:44;;;;;;;7.43;3.80;;;18.70;99.90;;;;;;4898878;29;20397;-71
2021/08/16 04:00:17;;;;;;;4.93;3.17;;;18.80;99.90;;;;;;4898289;29;20437;-70
2021/08/16 04:02:47;;;;;;;3.10;2.47;;;18.90;99.90;;;;;;4898701;29;20564;-70
2021/08/16 04:05:15;;;;;;;6.23;3.33;;;19.00;99.90;;;;;;4898852;29;20887;-70
2021/08/16 04:07:44;;;;;;;3.20;2.90;;;19.20;99.90;;;;;;4898211;29;20402;-70
2021/08/16 04:10:14;;;;;;;7.37;3.17;;;19.30;99.90;;;;;;4898059;29;20583;-71
2021/08/16 04:12:43;;;;;;;3.30;2.90;;;19.40;99.90;;;;;;4897791;29;20508;-72
2021/08/16 04:15:13;;;;;;;5.83;3.60;;;19.50;99.90;;;;;;4897979;29;21130;-70
2021/08/16 04:17:41;;;;;;;5.30;3.90;;;19.60;99.90;;;;;;4898926;29;20817;-71
2021/08/16 04:20:13;;;;;;;4.03;2.77;;;19.70;99.90;;;;;;4897901;29;20409;-71
2021/08/16 04:22:41;;;;;;;4.43;3.67;;;19.90;99.90;;;;;;4896297;29;20533;-71
2021/08/16 04:25:12;;;;;;;5.47;3.63;;;20.10;99.90;;;;;;4897328;29;20431;-71
2021/08/16 04:27:41;;;;;;;4.23;3.53;;;20.70;99.90;;;;;;4896835;29;20995;-71
2021/08/16 04:30:11;;;;;;;4.27;3.90;;;21.10;99.90;;;;;;4898126;29;20472;-71
2021/08/16 04:32:40;;;;;;;6.57;3.60;;;21.20;99.90;;;;;;4897621;29;20856;-71
2021/08/16 04:35:11;;;;;;;3.80;3.40;;;21.10;99.90;;;;;;4895719;29;20457;-71
2021/08/16 04:37:42;;;;;;;5.90;3.17;;;21.20;99.90;;;;;;4895984;29;20416;-71
2021/08/16 04:40:11;;;;;;;5.70;4.57;;;21.50;99.90;;;;;;4897770;29;20486;-71
2021/08/16 04:42:40;;;;;;;3.77;3.43;;;21.80;99.90;;;;;;4896298;29;20504;-72
2021/08/16 04:45:10;;;;;;;6.87;6.13;;;21.90;99.90;;;;;;4896149;29;20843;-70
2021/08/16 04:47:42;;;;;;;5.70;3.77;;;21.70;99.90;;;;;;4896828;29;20443;-70
2021/08/16 04:50:12;;;;;;;4.90;3.40;;;21.20;99.90;;;;;;4896949;29;20465;-71
2021/08/16 04:52:41;;;;;;;4.77;4.20;;;20.70;99.90;;;;;;4895245;29;20466;-71
2021/08/16 04:55:10;;;;;;;6.63;4.13;;;20.50;99.90;;;;;;4896272;29;20405;-71
2021/08/16 04:57:40;;;;;;;5.40;3.30;;;20.50;99.90;;;;;;4896638;29;20466;-71
2021/08/16 05:00:10;;;;;;;7.53;5.90;;;21.00;99.90;;;;;;4896392;29;20429;-71
2021/08/16 05:02:40;;;;;;;7.10;4.90;;;21.80;99.90;;;;;;4897554;29;20470;-71
2021/08/16 05:05:11;;;;;;;6.93;3.60;;;21.50;99.90;;;;;;4897420;29;20413;-71
2021/08/16 05:07:46;;;;;;;5.27;3.57;;;20.90;99.90;;;;;;4897628;29;20449;-71
2021/08/16 05:10:15;;;;;;;7.00;4.97;;;21.00;99.90;;;;;;4897575;29;20437;-71
2021/08/16 05:12:44;;;;;;;7.87;4.40;;;22.60;99.90;;;;;;4896146;29;20973;-71
2021/08/16 05:15:13;;;;;;;8.50;7.33;;;24.20;99.90;;;;;;4897119;29;20907;-70
2021/08/16 05:17:42;;;;;;;7.43;6.43;;;25.80;99.90;;;;;;4896803;29;20431;-70
2021/08/16 05:20:13;;;;;;;4.57;3.00;;;26.70;99.90;;;;;;4897667;29;20500;-70
2021/08/16 05:22:44;;;;;;;8.20;5.10;;;27.40;99.90;;;;;;4896774;29;20468;-71
2021/08/16 05:25:16;;;;;;;4.70;3.97;;;26.40;99.90;;;;;;4896737;29;20460;-70
2021/08/16 05:27:44;;;;;;;7.77;3.70;;;24.50;99.90;;;;;;4896846;29;20743;-70
2021/08/16 05:30:13;;;;;;;6.13;3.93;;;23.20;99.90;;;;;;4896418;29;20411;-72
2021/08/16 05:32:42;;;;;;;4.10;3.20;;;22.20;99.90;;;;;;4896570;29;20517;-71
2021/08/16 05:35:13;;;;;;;7.57;4.03;;;21.30;99.90;;;;;;4896192;29;20433;-71
2021/08/16 05:37:41;;;;;;;3.80;3.10;;;20.70;99.90;;;;;;4895859;29;20427;-70
2021/08/16 05:40:11;;;;;;;5.97;4.00;;;20.50;99.90;;;;;;4895905;29;20977;-69
2021/08/16 05:42:39;;;;;;;5.63;4.33;;;20.50;99.90;;;;;;4895577;29;20483;-71
2021/08/16 05:45:09;;;;;;;6.43;3.97;;;20.60;99.90;;;;;;4895519;29;20441;-71
2021/08/16 05:47:37;;;;;;;3.63;3.30;;;20.70;99.90;;;;;;4895636;29;20441;-70
2021/08/16 05:50:07;;;;;;;3.97;3.57;;;20.80;99.90;;;;;;4895726;29;20413;-70
2021/08/16 05:52:37;;;;;;;4.97;3.73;;;20.70;99.90;;;;;;4894584;29;20493;-70
2021/08/16 05:55:06;;;;;;;3.27;2.80;;;20.80;99.90;;;;;;4895106;29;20558;-70
2021/08/16 05:57:35;;;;;;;6.47;4.03;;;20.90;99.90;;;;;;4895334;29;20465;-70
2021/08/16 06:00:05;;;;;;;5.20;3.83;;;21.30;99.90;;;;;;4895618;29;20939;-70
2021/08/16 06:02:34;;;;;;;4.07;3.23;;;21.50;99.90;;;;;;4895236;29;20472;-70
2021/08/16 06:05:03;;;;;;;6.80;4.23;;;21.70;99.90;;;;;;4891038;29;20528;-71
2021/08/16 06:07:32;;;;;;;6.40;3.67;;;21.70;99.90;;;;;;4892558;29;20808;-73
2021/08/16 06:10:05;;;;;;;5.10;3.07;;;21.70;99.90;;;;;;4892870;29;20893;-73
2021/08/16 06:12:34;;;;;;;5.83;3.20;;;21.60;99.90;;;;;;4893289;29;20993;-72
2021/08/16 06:15:03;;;;;;;5.23;3.80;;;21.90;99.90;;;;;;4893799;29;20951;-72
2021/08/16 06:17:33;;;;;;;6.87;3.47;;;21.80;99.90;;;;;;4895439;29;20413;-72
2021/08/16 06:20:01;;;;;;;4.60;2.87;;;21.80;99.90;;;;;;4895437;29;20404;-72
2021/08/16 06:22:30;;;;;;;4.57;3.07;;;21.70;99.90;;;;;;4894646;29;20445;-71
2021/08/16 06:24:58;;;;;;;4.50;3.10;;;21.50;99.90;;;;;;4894876;29;20433;-72
2021/08/16 06:27:28;;;;;;;5.40;3.73;;;21.40;99.90;;;;;;4896452;29;20405;-74
2021/08/16 06:29:57;;;;;;;3.03;2.30;;;21.40;99.90;;;;;;4894734;29;20790;-74
2021/08/16 06:32:25;;;;;;;4.57;3.13;;;21.20;99.90;;;;;;4894790;29;20478;-71
2021/08/16 06:34:53;;;;;;;6.43;3.40;;;21.20;99.90;;;;;;4894930;29;20901;-72
2021/08/16 06:37:23;;;;;;;10.23;3.23;;;21.10;99.90;;;;;;4895022;29;20409;-71
2021/08/16 06:39:52;;;;;;;6.80;3.30;;;21.10;99.90;;;;;;4895105;29;20409;-72
2021/08/16 06:42:20;;;;;;;3.90;3.10;;;21.00;99.90;;;;;;4894978;29;20425;-71
2021/08/16 06:44:51;;;;;;;5.27;3.40;;;21.10;99.90;;;;;;4894534;29;20516;-71
2021/08/16 06:47:19;;;;;;;3.93;2.93;;;21.20;99.90;;;;;;4895436;29;20405;-69
2021/08/16 06:49:48;;;;;;;5.73;3.73;;;21.20;99.90;;;;;;4894446;29;20426;-71
2021/08/16 06:52:16;;;;;;;4.40;3.00;;;21.50;99.90;;;;;;4894196;29;20462;-72
2021/08/16 06:54:44;;;;;;;5.33;3.13;;;21.80;99.90;;;;;;4894049;29;20835;-72
2021/08/16 06:57:12;;;;;;;5.63;3.40;;;22.20;99.90;;;;;;4894359;29;21100;-72
2021/08/16 06:59:41;;;;;;;3.83;3.40;;;22.20;99.90;;;;;;4896492;29;20426;-71
2021/08/16 07:02:10;;;;;;;5.53;3.10;;;22.00;99.90;;;;;;4898109;29;20464;-72
2021/08/16 07:04:40;;;;;;;4.60;3.00;;;22.00;99.90;;;;;;4881254;29;20441;-72
2021/08/16 07:07:08;;;;;;;8.33;3.70;;;22.10;99.90;;;;;;4898698;29;20923;-74
2021/08/16 07:09:36;;;;;;;6.70;3.70;;;22.20;99.90;;;;;;4898405;29;21011;-72
2021/08/16 07:12:06;;;;;;;4.40;3.07;;;22.40;99.90;;;;;;4898325;29;20553;-74
2021/08/16 07:14:34;;;;;;;5.90;3.40;;;22.20;99.90;;;;;;4898644;29;20438;-74
2021/08/16 07:17:02;;;;;;;4.00;2.77;;;22.00;99.90;;;;;;4898284;29;20502;-72
2021/08/16 07:19:32;;;;;;;4.23;3.50;;;22.20;99.90;;;;;;4898108;29;20435;-74
2021/08/16 07:22:00;;;;;;;4.40;3.27;;;22.20;99.90;;;;;;4898092;29;20437;-71
2021/08/16 07:24:28;;;;;;;4.20;3.00;;;22.30;99.90;;;;;;4898548;29;20807;-70
2021/08/16 07:26:57;;;;;;;5.20;3.43;;;22.40;99.90;;;;;;4898378;29;20538;-70
2021/08/16 07:29:26;;;;;;;9.23;3.27;;;22.20;99.90;;;;;;4882381;29;20428;-72
2021/08/16 07:31:54;;;;;;;6.70;4.40;;;21.90;99.90;;;;;;4898212;29;20538;-71
2021/08/16 07:34:22;;;;;;;5.33;3.30;;;21.80;99.90;;;;;;4898404;29;20442;-71
2021/08/16 07:36:54;;;;;;;5.63;3.87;;;21.90;99.90;;;;;;4897724;29;20919;-72
2021/08/16 07:39:22;;;;;;;4.20;3.43;;;21.90;99.90;;;;;;4898017;29;20397;-71
2021/08/16 07:41:50;;;;;;;4.00;3.07;;;21.80;99.90;;;;;;4897973;29;20414;-71
2021/08/16 07:44:18;;;;;;;10.23;3.80;;;21.60;99.90;;;;;;4898042;29;20386;-71
2021/08/16 07:46:47;;;;;;;5.33;3.43;;;21.60;99.90;;;;;;4898012;29;20416;-70
2021/08/16 07:49:15;;;;;;;4.53;3.37;;;21.50;99.90;;;;;;4897646;29;20508;-70
2021/08/16 07:51:44;;;;;;;5.37;2.43;;;21.40;99.90;;;;;;4897573;29;20469;-73
2021/08/16 07:54:13;;;;;;;5.47;3.80;;;21.60;99.90;;;;;;4897507;29;20486;-72
2021/08/16 07:56:43;;;;;;;5.80;3.53;;;21.70;99.90;;;;;;4899307;29;20458;-72
2021/08/16 07:59:11;;;;;;;6.23;4.50;;;21.80;99.90;;;;;;4896667;29;20417;-71
2021/08/16 08:01:39;;;;;;;7.23;5.40;;;21.80;99.90;;;;;;4897764;29;20431;-72
2021/08/16 08:04:08;;;;;;;4.90;3.80;;;22.10;99.90;;;;;;4898077;29;20470;-72
2021/08/16 08:06:36;;;;;;;4.40;2.60;;;22.30;99.90;;;;;;4897514;29;20434;-72
2021/08/16 08:09:04;;;;;;;7.70;3.37;;;22.40;99.90;;;;;;4897438;29;20512;-72
2021/08/16 08:11:34;;;;;;;5.40;4.00;;;22.70;99.90;;;;;;4896546;29;20446;-72
2021/08/16 08:14:02;;;;;;;6.20;3.70;;;22.60;99.90;;;;;;4897125;29;20460;-72
2021/08/16 08:16:31;;;;;;;5.77;4.80;;;22.60;99.90;;;;;;4897430;29;20454;-72
2021/08/16 08:18:59;;;;;;;6.97;4.47;;;22.60;99.90;;;;;;4896916;29;20803;-72
2021/08/16 08:21:27;;;;;;;5.60;3.80;;;22.70;99.90;;;;;;4897176;29;20482;-73
2021/08/16 08:23:56;;;;;;;5.63;4.57;;;22.80;99.90;;;;;;4895835;29;20458;-72
2021/08/16 08:26:24;;;;;;;4.93;4.43;;;22.70;99.90;;;;;;4897041;29;20413;-72
2021/08/16 08:28:53;;;;;;;5.20;4.03;;;22.50;99.90;;;;;;4896820;29;20441;-72
2021/08/16 08:31:22;;;;;;;5.90;5.30;;;22.60;99.90;;;;;;4897135;29;20437;-72
2021/08/16 08:33:50;;;;;;;6.93;5.07;;;22.90;99.90;;;;;;4896835;29;20833;-72
2021/08/16 08:36:18;;;;;;;7.10;5.40;;;23.20;99.90;;;;;;4896720;29;20413;-73
2021/08/16 08:38:47;;;;;;;5.20;4.13;;;23.50;99.90;;;;;;4896337;29;20401;-73
2021/08/16 08:41:17;;;;;;;5.73;4.60;;;23.60;99.90;;;;;;4896416;29;20776;-72
2021/08/16 08:43:46;;;;;;;5.43;4.80;;;23.90;99.90;;;;;;4893956;29;20894;-71
2021/08/16 08:46:19;;;;;;;6.40;4.80;;;24.30;99.90;;;;;;4895957;29;20450;-71
2021/08/16 08:48:48;;;;;;;5.43;4.57;;;24.30;99.90;;;;;;4895051;29;20421;-72
2021/08/16 08:51:20;;;;;;;5.80;5.20;;;24.20;99.90;;;;;;4896245;29;20945;-71
2021/08/16 08:53:48;;;;;;;5.10;4.60;;;23.70;99.90;;;;;;4896281;29;21035;-72
2021/08/16 08:56:17;;;;;;;6.60;4.80;;;23.50;99.90;;;;;;4896278;29;20401;-74
2021/08/16 08:58:45;;;;;;;6.17;4.20;;;23.50;99.90;;;;;;4896259;29;20847;-71
2021/08/16 09:01:15;;;;;;;6.13;4.70;;;23.60;99.90;;;;;;4895322;29;21028;-71
2021/08/16 09:03:49;;;;;;;5.23;4.73;;;23.70;99.90;;;;;;4896373;29;20993;-72
2021/08/16 09:06:28;;;;;;;6.40;4.97;;;23.70;99.90;;;;;;4896282;29;20441;-72
2021/08/16 09:08:57;;;;;;;5.90;4.97;;;23.50;99.90;;;;;;4896261;29;20412;-74
2021/08/16 09:11:27;;;;;;;7.90;4.50;;;23.60;99.90;;;;;;4894781;29;20954;-72
2021/08/16 09:13:57;;;;;;;5.80;4.43;;;23.60;99.90;;;;;;4895774;29;20484;-72
2021/08/16 09:16:29;;;;;;;6.07;4.30;;;23.80;99.90;;;;;;4895690;29;20431;-72
2021/08/16 09:18:58;;;;;;;6.17;4.03;;;23.80;99.90;;;;;;4895986;29;20446;-73
2021/08/16 09:21:29;;;;;;;3.87;3.47;;;24.10;99.90;;;;;;4895402;29;20452;-74
2021/08/16 09:23:58;;;;;;;5.53;5.03;;;24.30;99.90;;;;;;4895560;29;20947;-74
2021/08/16 09:26:28;;;;;;;5.73;4.53;;;24.20;99.90;;;;;;4895438;29;20940;-73
2021/08/16 09:29:18;;;;;;;4.73;4.37;;;24.50;99.90;;;;;;4895322;29;20907;-73
2021/08/16 09:31:53;;;;;;;4.20;3.63;;;24.90;99.90;;;;;;4895128;29;20481;-72
2021/08/16 09:34:32;;;;;;;5.20;4.43;;;24.90;99.90;;;;;;4895164;29;20461;-72
2021/08/16 09:37:04;;;;;;;4.80;3.60;;;25.10;99.90;;;;;;4895632;29;20482;-72
2021/08/16 09:39:35;;;;;;;3.90;3.47;;;25.50;99.90;;;;;;4894870;29;20405;-74
2021/08/16 09:42:05;;;;;;;4.70;4.00;;;25.60;99.90;;;;;;4909901;29;20442;-73
2021/08/16 09:44:33;;;;;;;6.00;3.80;;;25.40;99.90;;;;;;4894985;29;20494;-72
2021/08/16 09:47:05;;;;;;;5.50;3.83;;;25.10;99.90;;;;;;4894610;29;20409;-72
2021/08/16 09:49:34;;;;;;;5.83;3.30;;;25.20;99.90;;;;;;4894566;29;20436;-72
2021/08/16 09:52:05;;;;;;;5.17;3.03;;;24.80;99.90;;;;;;4894637;29;20772;-72
2021/08/16 09:54:36;;;;;;;4.70;3.97;;;24.30;99.90;;;;;;4894851;29;20458;-71
2021/08/16 09:57:08;;;;;;;5.40;4.30;;;24.00;99.90;;;;;;4894836;29;20482;-71
2021/08/16 09:59:37;;;;;;;4.83;3.07;;;23.90;99.90;;;;;;4894071;29;20458;-71
2021/08/16 10:02:08;;;;;;;5.33;4.40;;;24.00;99.90;;;;;;4893903;29;20911;-72
2021/08/16 10:04:37;;;;;;;4.60;3.80;;;24.30;99.90;;;;;;4894246;29;20441;-71
2021/08/16 10:07:10;;;;;;;5.87;4.10;;;24.50;99.90;;;;;;4894137;29;20456;-70
2021/08/16 10:09:49;;;;;;;4.00;3.40;;;24.10;99.90;;;;;;4894392;29;20487;-73
2021/08/16 10:12:18;;;;;;;5.07;3.90;;;24.00;99.90;;;;;;4894219;29;20452;-71
2021/08/16 10:14:48;;;;;;;5.10;3.37;;;23.80;99.90;;;;;;4894172;29;20469;-71
2021/08/16 10:17:26;;;;;;;5.43;3.90;;;23.70;99.90;;;;;;4894867;29;20446;-72
2021/08/16 10:19:58;;;;;;;4.90;3.20;;;24.00;99.90;;;;;;4891629;29;20452;-72
2021/08/16 10:22:28;;;;;;;4.37;2.97;;;24.60;99.90;;;;;;4894853;29;20450;-72
2021/08/16 10:24:57;;;;;;;5.23;3.30;;;25.20;99.90;;;;;;4894016;29;20524;-71
2021/08/16 10:27:32;;;;;;;3.40;3.07;;;25.50;99.90;;;;;;4893224;29;20543;-72
2021/08/16 10:30:11;;;;;;;3.17;2.63;;;25.30;99.90;;;;;;4893083;29;20529;-72
2021/08/16 10:32:41;;;;;;;3.90;3.50;;;25.10;99.90;;;;;;4893965;29;20464;-71
2021/08/16 10:35:17;;;;;;;3.20;3.00;;;24.60;99.90;;;;;;4892302;29;20434;-72
2021/08/16 10:37:46;;;;;;;4.40;3.07;;;24.30;99.90;;;;;;4893844;29;20437;-72
2021/08/16 10:40:18;;;;;;;4.53;2.97;;;24.50;99.90;;;;;;4893071;29;20440;-72
2021/08/16 10:42:48;;;;;;;4.13;3.37;;;24.80;99.90;;;;;;4894036;29;20523;-73
2021/08/16 10:45:25;;;;;;;2.93;2.60;;;25.10;99.90;;;;;;4892745;29;20453;-71
2021/08/16 10:48:02;;;;;;;2.93;2.63;;;25.30;99.90;;;;;;4893644;29;20409;-73
2021/08/16 10:50:31;;;;;;;3.47;2.67;;;25.30;99.90;;;;;;4893208;29;20462;-72
2021/08/16 10:53:05;;;;;;;3.20;2.90;;;25.00;99.90;;;;;;4894000;29;20442;-73
2021/08/16 10:55:35;;;;;;;3.10;2.80;;;24.90;99.90;;;;;;4893536;29;20396;-73
2021/08/16 10:58:07;;;;;;;6.47;3.53;;;25.10;99.90;;;;;;4894434;29;20415;-73
2021/08/16 11:00:36;;;;;;;6.10;2.77;;;25.10;99.90;;;;;;4893565;29;20461;-72
2021/08/16 11:03:07;;;;;;;4.67;3.70;;;25.40;99.90;;;;;;4893988;29;20502;-71
2021/08/16 11:05:37;;;;;;;3.97;3.17;;;25.60;99.90;;;;;;4891573;29;20978;-71
2021/08/16 11:08:07;;;;;;;3.80;2.90;;;25.20;99.90;;;;;;4892423;29;20528;-73
2021/08/16 11:10:44;;;;;;;4.50;3.17;;;24.80;99.90;;;;;;4891697;29;20397;-73
2021/08/16 11:13:15;;;;;;;3.67;2.73;;;24.70;99.90;;;;;;4892368;29;20432;-73
2021/08/16 11:15:45;;;;;;;5.43;3.13;;;24.90;99.90;;;;;;4891420;29;20455;-73
2021/08/16 11:18:17;;;;;;;4.90;2.80;;;25.10;99.90;;;;;;4893046;29;20405;-72
2021/08/16 11:20:47;;;;;;;4.80;3.20;;;25.10;99.90;;;;;;4893620;29;20593;-72
2021/08/16 11:23:21;;;;;;;2.50;2.30;;;25.10;99.90;;;;;;4892882;29;20429;-73
2021/08/16 11:25:51;;;;;;;3.50;3.13;;;25.10;99.90;;;;;;4891793;29;20425;-73
2021/08/16 11:28:22;;;;;;;3.30;3.00;;;25.20;99.90;;;;;;4893425;29;20405;-72
2021/08/16 11:30:51;;;;;;;4.47;3.20;;;25.10;99.90;;;;;;4892206;29;20983;-72
2021/08/16 11:33:25;;;;;;;3.60;3.00;;;25.10;99.90;;;;;;4892834;29;20792;-73
2021/08/16 11:36:04;;;;;;;2.57;2.37;;;25.00;99.90;;;;;;4894763;29;20449;-73
2021/08/16 11:38:33;;;;;;;6.60;3.03;;;25.00;99.90;;;;;;4894489;29;20563;-72
2021/08/16 11:41:06;;;;;;;3.73;3.00;;;25.20;99.90;;;;;;4893300;29;20427;-73
2021/08/16 11:43:54;;;;;;;3.23;2.73;;;25.60;99.90;;;;;;4893482;29;20425;-71
2021/08/16 11:46:23;;;;;;;3.00;2.27;;;25.50;99.90;;;;;;4894240;29;20789;-72
2021/08/16 11:48:53;;;;;;;3.30;2.63;;;25.60;99.90;;;;;;4896604;29;20533;-72
2021/08/16 11:51:21;;;;;;;3.03;2.43;;;25.80;99.90;;;;;;4896995;29;20774;-72
2021/08/16 11:53:50;;;;;;;5.43;3.00;;;25.90;99.90;;;;;;4896940;29;20445;-73
2021/08/16 11:56:18;;;;;;;4.37;2.80;;;26.20;99.90;;;;;;4896003;29;20409;-73
2021/08/16 11:58:47;;;;;;;6.57;2.33;;;26.20;99.90;;;;;;4895793;29;20474;-70
2021/08/16 12:01:15;;;;;;;3.50;2.47;;;26.20;99.90;;;;;;4894902;29;20404;-71
2021/08/16 12:03:44;;;;;;;3.30;2.30;;;25.50;99.90;;;;;;4895508;29;20502;-72
2021/08/16 12:06:16;;;;;;;2.30;1.93;;;25.50;99.90;;;;;;4893483;29;20455;-72
2021/08/16 12:08:45;;;;;;;3.50;2.83;;;25.50;99.90;;;;;;4892904;29;20401;-73
2021/08/16 12:11:14;;;;;;;3.40;2.53;;;25.40;99.90;;;;;;4893570;29;20450;-72
2021/08/16 12:13:42;;;;;;;4.63;3.53;;;25.40;99.90;;;;;;4894677;29;20460;-74
2021/08/16 12:16:15;;;;;;;3.70;3.03;;;25.60;99.90;;;;;;4895001;29;20921;-73
2021/08/16 12:18:44;;;;;;;3.30;2.93;;;25.10;99.90;;;;;;4893941;29;20834;-71
2021/08/16 12:21:21;;;;;;;3.90;2.43;;;25.10;99.90;;;;;;4894816;29;20402;-71
2021/08/16 12:23:54;;;;;;;3.40;2.77;;;25.00;99.90;;;;;;4895002;29;20429;-75
2021/08/16 12:26:32;;;;;;;4.40;3.70;;;24.80;99.90;;;;;;4890340;29;20498;-72
2021/08/16 12:29:01;;;;;;;4.70;3.60;;;24.80;99.90;;;;;;4894774;29;20670;-73
2021/08/16 12:31:30;;;;;;;3.20;2.60;;;24.70;99.90;;;;;;4894568;29;20401;-74
2021/08/16 12:34:01;;;;;;;3.80;2.23;;;24.70;99.90;;;;;;4893522;29;20432;-72
2021/08/16 12:36:32;;;;;;;7.00;6.27;;;24.50;99.90;;;;;;4893609;29;20518;-75
2021/08/16 12:39:08;;;;;;;5.07;4.23;;;24.60;99.90;;;;;;4894123;29;20801;-75
2021/08/16 12:42:05;;;;;;;3.43;2.50;;;24.80;99.90;;;;;;4894844;29;20441;-73
2021/08/16 12:44:33;;;;;;;3.80;2.70;;;25.00;99.90;;;;;;4895117;29;20476;-72
2021/08/16 12:47:02;;;;;;;4.20;2.73;;;25.20;99.90;;;;;;4894606;29;20787;-73
2021/08/16 12:49:32;;;;;;;4.20;2.60;;;25.20;99.90;;;;;;4894931;29;20415;-73
2021/08/16 12:52:03;;;;;;;5.13;2.20;;;24.90;99.90;;;;;;4896262;29;20412;-73
2021/08/16 12:54:34;;;;;;;3.73;2.70;;;24.80;99.90;;;;;;4898465;29;20804;-72
2021/08/16 12:57:02;;;;;;;5.53;2.57;;;25.10;99.90;;;;;;4899912;29;20500;-71
2021/08/16 12:59:30;;;;;;;3.13;2.80;;;24.90;99.90;;;;;;4901271;29;20572;-71